createdAt,value
2023-03-16T00:03:47.788Z,92550.16
2023-03-16T00:08:49.771Z,92538.13
2023-03-16T00:13:52.269Z,92539.91
2023-03-16T00:18:54.065Z,92551.38
2023-03-16T00:23:56.314Z,92555.28
2023-03-16T00:28:58.083Z,92558.38
2023-03-16T00:33:59.786Z,92534.81
2023-03-16T00:39:02.310Z,92559.47
2023-03-16T00:44:05.638Z,92554.47
2023-03-16T00:49:07.397Z,92561.31
2023-03-16T00:54:09.119Z,92565.97
2023-03-16T00:59:12.994Z,92547.41
2023-03-16T01:04:14.880Z,92557.69
2023-03-16T01:09:16.690Z,92530.25
2023-03-16T01:14:19.774Z,92548.47
2023-03-16T01:19:22.828Z,92542.28
2023-03-16T01:24:24.571Z,92544.56
2023-03-16T01:29:26.602Z,92531.38
2023-03-16T01:34:32.043Z,92537.63
2023-03-16T01:39:34.461Z,92533.66
2023-03-16T01:44:57.853Z,92530.44
2023-03-16T01:50:06.589Z,92509.69
2023-03-16T01:55:15.895Z,92502.97
2023-03-16T02:00:21.733Z,92508.94
2023-03-16T02:05:59.943Z,92494.78
2023-03-16T02:11:04.802Z,92495.72
2023-03-16T02:16:27.105Z,92485.72
2023-03-16T02:21:39.059Z,92475.25
2023-03-16T02:26:57.612Z,92473.88
2023-03-16T02:32:02.948Z,92454.22
2023-03-16T02:37:06.381Z,92454.88
2023-03-16T02:42:14.054Z,92456.31
2023-03-16T02:47:27.083Z,92469.91
2023-03-16T02:52:29.000Z,92449.63
2023-03-16T02:57:31.730Z,92471.09
2023-03-16T03:02:38.339Z,92463.97
2023-03-16T03:07:40.252Z,92463.94
2023-03-16T03:12:43.127Z,92464.16
2023-03-16T03:17:45.849Z,92452.50
2023-03-16T03:22:50.306Z,92455.13
2023-03-16T03:27:54.477Z,92442.66
2023-03-16T03:32:57.250Z,92471.00
2023-03-16T03:37:59.392Z,92476.06
2023-03-16T03:43:01.784Z,92492.53
2023-03-16T03:48:05.601Z,92464.66
2023-03-16T03:53:08.662Z,92484.00
2023-03-16T03:58:22.652Z,92489.53
2023-03-16T04:03:24.691Z,92500.16
2023-03-16T04:08:26.579Z,92468.16
2023-03-16T04:13:28.823Z,92486.97
2023-03-16T04:18:38.539Z,92496.75
2023-03-16T04:23:42.494Z,92493.03
2023-03-16T04:28:44.503Z,92489.28
2023-03-16T04:33:50.667Z,92474.97
2023-03-16T04:38:52.956Z,92493.03
2023-03-16T04:43:54.773Z,92490.38
2023-03-16T04:48:59.308Z,92477.31
2023-03-16T04:54:03.750Z,92489.78
2023-03-16T04:59:10.699Z,92506.53
2023-03-16T05:04:22.034Z,92502.03
2023-03-16T05:09:23.935Z,92493.88
2023-03-16T05:14:26.075Z,92496.25
2023-03-16T05:19:40.725Z,92470.53
2023-03-16T05:24:42.845Z,92401.81
2023-03-16T05:29:46.212Z,92486.69
2023-03-16T05:34:48.653Z,92468.97
2023-03-16T05:39:50.802Z,92475.03
2023-03-16T05:44:53.804Z,92480.59
2023-03-16T05:50:05.149Z,92492.97
2023-03-16T05:55:14.609Z,92487.09
2023-03-16T06:00:19.744Z,92476.47
2023-03-16T06:05:30.349Z,92450.28
2023-03-16T06:10:32.360Z,92452.88
2023-03-16T06:15:34.188Z,92446.94
2023-03-16T06:20:38.135Z,92435.84
2023-03-16T06:25:40.977Z,92440.59
2023-03-16T06:30:44.435Z,92455.13
2023-03-16T06:35:48.215Z,92469.66
2023-03-16T06:41:02.516Z,92492.81
2023-03-16T06:46:06.765Z,92492.53
2023-03-16T06:51:08.771Z,92480.09
2023-03-16T06:56:11.924Z,92452.66
2023-03-16T07:01:16.649Z,92452.75
2023-03-16T07:06:18.546Z,92436.59
2023-03-16T07:11:20.340Z,92451.22
2023-03-16T07:16:22.129Z,92447.94
2023-03-16T07:21:24.350Z,92453.22
2023-03-16T07:26:26.675Z,92455.38
2023-03-16T07:31:34.522Z,92450.63
2023-03-16T07:36:39.830Z,92439.53
2023-03-16T07:41:41.740Z,92466.00
2023-03-16T07:46:51.518Z,92448.56
2023-03-16T07:51:55.115Z,92462.25
2023-03-16T07:57:02.964Z,92459.50
2023-03-16T08:02:18.683Z,92470.00
2023-03-16T08:07:20.804Z,92480.78
2023-03-16T08:12:48.864Z,92476.28
2023-03-16T08:17:52.338Z,92464.56
2023-03-16T08:22:59.065Z,92473.34
2023-03-16T08:28:05.955Z,92479.13
2023-03-16T08:33:08.187Z,92467.72
2023-03-16T08:38:12.273Z,92475.66
2023-03-16T08:43:19.086Z,92477.69
2023-03-16T08:48:22.155Z,92484.13
2023-03-16T08:53:25.815Z,92479.06
2023-03-16T08:58:27.620Z,92470.97
2023-03-16T09:03:30.878Z,92495.28
2023-03-16T09:08:32.990Z,92480.19
2023-03-16T09:13:36.122Z,92483.97
2023-03-16T09:18:37.896Z,92481.75
2023-03-16T09:23:42.681Z,92482.78
2023-03-16T09:28:44.542Z,92473.81
2023-03-16T09:33:47.190Z,92481.81
2023-03-16T09:38:48.894Z,92475.03
2023-03-16T09:44:12.198Z,92469.31
2023-03-16T09:49:19.807Z,92462.19
2023-03-16T09:54:50.746Z,92448.88
2023-03-16T09:59:53.183Z,92426.53
2023-03-16T10:04:57.794Z,92433.09
2023-03-16T10:10:18.363Z,92434.25
2023-03-16T10:15:29.094Z,92427.72
2023-03-16T10:20:33.837Z,92417.47
2023-03-16T10:25:44.531Z,92411.44
2023-03-16T10:30:49.494Z,92423.22
2023-03-16T10:36:13.267Z,92423.97
2023-03-16T10:41:18.209Z,92436.28
2023-03-16T10:46:20.119Z,92435.94
2023-03-16T10:51:26.883Z,92438.34
2023-03-16T10:56:35.372Z,92440.47
2023-03-16T11:01:37.559Z,92446.97
2023-03-16T11:06:52.793Z,92452.00
2023-03-16T11:11:54.748Z,92456.03
2023-03-16T11:17:19.125Z,92450.69
2023-03-16T11:22:25.362Z,92442.31
2023-03-16T11:27:37.596Z,92447.41
2023-03-16T11:32:43.326Z,92443.78
2023-03-16T11:38:02.333Z,92453.31
2023-03-16T11:43:12.303Z,92461.47
2023-03-16T11:48:39.091Z,92458.63
2023-03-16T11:53:52.492Z,92456.69
2023-03-16T11:59:00.696Z,92454.06
2023-03-16T12:04:18.277Z,92455.22
2023-03-16T12:09:51.476Z,92456.88
2023-03-16T12:15:06.345Z,92453.25
2023-03-16T12:20:31.761Z,92457.81
2023-03-16T12:25:39.526Z,92452.56
2023-03-16T12:30:50.525Z,92427.03
2023-03-16T12:36:24.451Z,92421.28
2023-03-16T12:41:52.842Z,92421.13
2023-03-16T12:47:06.993Z,92413.78
2023-03-16T12:52:12.574Z,92399.00
2023-03-16T12:57:17.065Z,92402.03
2023-03-16T13:02:25.007Z,92390.44
2023-03-16T13:07:31.193Z,92377.91
2023-03-16T13:12:37.160Z,92360.41
2023-03-16T13:17:39.289Z,92351.31
2023-03-16T13:22:43.933Z,92335.03
2023-03-16T13:27:52.483Z,92339.53
2023-03-16T13:32:56.631Z,92345.75
2023-03-16T13:38:06.599Z,92346.03
2023-03-16T13:43:15.621Z,92346.94
2023-03-16T13:48:20.654Z,92357.22
2023-03-16T13:53:31.558Z,92351.91
2023-03-16T13:58:37.131Z,92367.97
2023-03-16T14:03:42.305Z,92354.69
2023-03-16T14:08:50.727Z,92350.63
2023-03-16T14:13:54.691Z,92349.31
2023-03-16T14:19:19.221Z,92345.69
2023-03-16T14:24:30.830Z,92352.28
2023-03-16T14:29:33.082Z,92351.66
2023-03-16T14:34:39.488Z,92343.13
2023-03-16T14:39:41.851Z,92345.06
2023-03-16T14:44:44.345Z,92345.88
2023-03-16T14:49:48.777Z,92345.75
2023-03-16T14:54:52.320Z,92345.69
2023-03-16T14:59:54.501Z,92348.06
2023-03-16T15:04:57.667Z,92350.03
2023-03-16T15:10:16.945Z,92359.72
2023-03-16T15:15:22.570Z,92358.63
2023-03-16T15:20:35.327Z,92359.06
2023-03-16T15:25:39.597Z,92349.94
2023-03-16T15:30:43.268Z,92344.34
2023-03-16T15:35:47.730Z,92344.97
2023-03-16T15:40:51.317Z,92328.94
2023-03-16T15:45:54.164Z,92320.63
2023-03-16T15:51:12.355Z,92318.38
2023-03-16T15:56:18.499Z,92315.97
2023-03-16T16:01:24.195Z,92306.97
2023-03-16T16:06:27.491Z,92304.19
2023-03-16T16:11:29.503Z,92292.31
2023-03-16T16:16:33.645Z,92293.97
2023-03-16T16:21:35.739Z,92295.31
2023-03-16T16:26:52.917Z,92294.63
2023-03-16T16:31:56.481Z,92291.00
2023-03-16T16:36:58.474Z,92292.56
2023-03-16T16:42:00.884Z,92301.03
2023-03-16T16:47:03.856Z,92300.47
2023-03-16T16:52:06.517Z,92292.78
2023-03-16T16:57:17.085Z,92298.94
2023-03-16T17:02:40.945Z,92293.56
2023-03-16T17:07:43.688Z,92300.84
2023-03-16T17:12:45.966Z,92282.84
2023-03-16T17:17:47.976Z,92299.19
2023-03-16T17:22:51.403Z,92302.47
2023-03-16T17:27:56.573Z,92296.69
2023-03-16T17:33:11.084Z,92307.00
2023-03-16T17:38:21.946Z,92308.19
2023-03-16T17:43:24.283Z,92289.94
2023-03-16T17:48:26.063Z,92290.72
2023-03-16T17:53:27.874Z,92307.63
2023-03-16T17:58:31.373Z,92308.31
2023-03-16T18:03:33.333Z,92294.94
2023-03-16T18:08:36.051Z,92308.94
2023-03-16T18:13:40.444Z,92302.34
2023-03-16T18:18:42.846Z,92321.28
2023-03-16T18:23:44.697Z,92318.72
2023-03-16T18:28:46.715Z,92308.34
2023-03-16T18:33:51.232Z,92318.81
2023-03-16T18:38:55.238Z,92325.59
2023-03-16T18:43:59.730Z,92328.59
2023-03-16T18:49:09.540Z,92323.97
2023-03-16T18:54:21.962Z,92311.94
2023-03-16T18:59:23.888Z,92315.75
2023-03-16T19:04:30.717Z,92321.81
2023-03-16T19:09:32.820Z,92325.66
2023-03-16T19:14:35.167Z,92325.84
2023-03-16T19:19:37.150Z,92313.81
2023-03-16T19:24:49.052Z,92323.31
2023-03-16T19:29:53.008Z,92317.94
2023-03-16T19:34:54.892Z,92329.59
2023-03-16T19:39:56.872Z,92325.41
2023-03-16T19:44:58.773Z,92302.41
2023-03-16T19:50:01.760Z,92317.28
2023-03-16T19:55:03.771Z,92321.81
2023-03-16T20:00:06.607Z,92313.47
2023-03-16T20:05:17.061Z,92259.50
2023-03-16T20:10:25.388Z,92301.53
2023-03-16T20:15:33.579Z,92291.00
2023-03-16T20:20:35.912Z,92304.41
2023-03-16T20:25:37.900Z,92307.53
2023-03-16T20:30:39.735Z,92310.06
2023-03-16T20:35:41.573Z,92304.78
2023-03-16T20:40:45.335Z,92310.25
2023-03-16T20:45:48.461Z,92319.91
2023-03-16T20:50:50.339Z,92300.31
2023-03-16T20:55:54.505Z,92313.44
2023-03-16T21:01:01.888Z,92283.09
2023-03-16T21:06:14.505Z,92306.28
2023-03-16T21:11:24.178Z,92279.53
2023-03-16T21:16:26.742Z,92297.53
2023-03-16T21:21:28.637Z,92296.41
2023-03-16T21:26:32.940Z,92300.81
2023-03-16T21:31:34.990Z,92303.69
2023-03-16T21:36:36.807Z,92300.38
2023-03-16T21:41:38.727Z,92303.09
2023-03-16T21:46:40.609Z,92285.78
2023-03-16T21:51:43.216Z,92310.75
2023-03-16T21:56:46.494Z,92304.84
2023-03-16T22:02:01.072Z,92303.13
2023-03-16T22:07:10.301Z,92297.13
2023-03-16T22:12:13.973Z,92293.53
2023-03-16T22:17:22.167Z,92272.59
2023-03-16T22:22:23.995Z,92283.00
2023-03-16T22:27:26.328Z,92279.66
2023-03-16T22:32:28.109Z,92257.09
2023-03-16T22:37:30.379Z,92273.00
2023-03-16T22:42:32.275Z,92276.66
2023-03-16T22:47:36.798Z,92276.50
2023-03-16T22:52:39.215Z,92281.66
2023-03-16T22:57:41.122Z,92274.28
2023-03-16T23:02:43.376Z,92269.75
2023-03-16T23:07:46.642Z,92271.94
2023-03-16T23:12:50.142Z,92259.16
2023-03-16T23:17:52.261Z,92251.66
2023-03-16T23:22:55.130Z,92235.13
2023-03-16T23:27:59.123Z,92248.16
2023-03-16T23:33:00.992Z,92235.09
2023-03-16T23:38:02.998Z,92261.06
2023-03-16T23:43:05.383Z,92265.97
2023-03-16T23:48:16.862Z,92268.66
2023-03-16T23:53:20.051Z,92253.94
2023-03-16T23:58:21.939Z,92270.88
